createdAt,value
2022-09-04T00:02:32.579Z,15.40
2022-09-04T00:05:09.604Z,14.53
2022-09-04T00:07:46.587Z,12.13
2022-09-04T00:10:22.467Z,18.37
2022-09-04T00:12:56.149Z,12.40
2022-09-04T00:15:36.311Z,10.73
2022-09-04T00:18:10.561Z,13.97
2022-09-04T00:20:43.481Z,12.50
2022-09-04T00:23:19.559Z,13.40
2022-09-04T00:25:59.468Z,16.37
2022-09-04T00:28:39.447Z,14.80
2022-09-04T00:31:19.308Z,13.37
2022-09-04T00:33:54.281Z,12.57
2022-09-04T00:36:25.585Z,14.00
2022-09-04T00:38:59.586Z,16.07
2022-09-04T00:41:35.485Z,14.50
2022-09-04T00:44:27.288Z,15.80
2022-09-04T00:47:23.692Z,13.30
2022-09-04T00:50:04.955Z,14.13
2022-09-04T00:53:02.437Z,16.97
2022-09-04T00:55:55.391Z,14.20
2022-09-04T00:58:44.595Z,12.40
2022-09-04T01:01:21.673Z,13.13
2022-09-04T01:04:20.147Z,13.57
2022-09-04T01:07:03.561Z,15.47
2022-09-04T01:10:06.508Z,14.33
2022-09-04T01:12:41.401Z,14.30
2022-09-04T01:15:17.640Z,13.73
2022-09-04T01:17:56.664Z,15.57
2022-09-04T01:20:52.594Z,16.63
2022-09-04T01:23:54.607Z,14.10
2022-09-04T01:26:29.667Z,10.50
2022-09-04T01:29:14.517Z,13.90
2022-09-04T01:31:52.789Z,12.17
2022-09-04T01:34:35.432Z,11.70
2022-09-04T01:37:30.643Z,12.20
2022-09-04T01:40:10.181Z,11.03
2022-09-04T01:42:51.458Z,14.37
2022-09-04T01:45:30.521Z,13.23
2022-09-04T01:48:04.630Z,11.90
2022-09-04T01:50:34.491Z,15.83
2022-09-04T01:53:11.651Z,15.70
2022-09-04T01:55:48.511Z,10.83
2022-09-04T01:58:27.663Z,14.07
2022-09-04T02:01:06.712Z,14.60
2022-09-04T02:03:46.279Z,12.63
2022-09-04T02:06:22.762Z,10.73
2022-09-04T02:09:02.605Z,13.53
2022-09-04T02:11:32.310Z,12.07
2022-09-04T02:14:26.100Z,11.70
2022-09-04T02:17:13.373Z,12.30
2022-09-04T02:20:03.066Z,12.73
2022-09-04T02:22:42.064Z,9.60
2022-09-04T02:25:23.365Z,10.73
2022-09-04T02:28:02.454Z,13.33
2022-09-04T02:30:38.645Z,10.93
2022-09-04T02:33:15.616Z,11.53
2022-09-04T02:35:49.524Z,10.73
2022-09-04T02:38:30.822Z,10.43
2022-09-04T02:41:11.685Z,9.90
2022-09-04T02:43:52.149Z,10.53
2022-09-04T02:46:29.215Z,9.53
2022-09-04T02:49:09.399Z,10.30
2022-09-04T02:51:56.350Z,11.77
2022-09-04T02:54:43.353Z,9.33
2022-09-04T02:57:24.497Z,10.30
2022-09-04T03:00:06.610Z,12.27
2022-09-04T03:02:43.567Z,12.80
2022-09-04T03:05:20.402Z,10.70
2022-09-04T03:07:57.753Z,10.60
2022-09-04T03:10:32.657Z,10.30
2022-09-04T03:13:07.743Z,9.30
2022-09-04T03:15:43.256Z,12.00
2022-09-04T03:18:21.857Z,11.97
2022-09-04T03:20:56.582Z,9.07
2022-09-04T03:23:38.661Z,16.47
2022-09-04T03:26:23.209Z,10.30
2022-09-04T03:29:03.795Z,8.73
2022-09-04T03:31:39.775Z,10.07
2022-09-04T03:34:27.448Z,10.57
2022-09-04T03:37:23.728Z,12.63
2022-09-04T03:40:07.581Z,9.60
2022-09-04T03:42:52.686Z,11.10
2022-09-04T03:45:27.794Z,10.83
2022-09-04T03:48:11.374Z,14.80
2022-09-04T03:50:53.638Z,8.30
2022-09-04T03:53:31.736Z,8.40
2022-09-04T03:56:43.865Z,10.73
2022-09-04T03:59:25.580Z,12.83
2022-09-04T04:01:59.706Z,10.30
2022-09-04T04:04:52.235Z,9.77
2022-09-04T04:07:35.545Z,11.60
2022-09-04T04:10:15.586Z,9.97
2022-09-04T04:13:10.387Z,11.47
2022-09-04T04:15:50.590Z,11.13
2022-09-04T04:18:53.200Z,9.43
2022-09-04T04:21:39.344Z,11.13
2022-09-04T04:24:41.695Z,9.93
2022-09-04T04:27:25.735Z,8.93
2022-09-04T04:30:05.616Z,9.83
2022-09-04T04:33:11.174Z,14.00
2022-09-04T04:35:50.682Z,8.33
2022-09-04T04:38:36.672Z,9.87
2022-09-04T04:41:29.173Z,11.00
2022-09-04T04:44:08.236Z,11.03
2022-09-04T04:46:56.945Z,10.00
2022-09-04T04:49:52.233Z,9.57
2022-09-04T04:52:28.413Z,10.60
2022-09-04T04:55:06.674Z,8.87
2022-09-04T04:57:46.746Z,9.43
2022-09-04T05:00:27.375Z,10.97
2022-09-04T05:03:08.659Z,10.80
2022-09-04T05:05:54.903Z,9.50
2022-09-04T05:08:38.697Z,11.13
2022-09-04T05:11:15.751Z,12.33
2022-09-04T05:14:00.474Z,10.03
2022-09-04T05:16:43.113Z,10.97
2022-09-04T05:19:19.744Z,9.43
2022-09-04T05:21:54.619Z,9.47
2022-09-04T05:24:32.911Z,8.67
2022-09-04T05:27:07.289Z,10.37
2022-09-04T05:29:51.440Z,10.30
2022-09-04T05:32:26.317Z,16.20
2022-09-04T05:35:05.613Z,8.80
2022-09-04T05:37:39.767Z,11.73
2022-09-04T05:40:23.432Z,9.47
2022-09-04T05:43:06.700Z,8.87
2022-09-04T05:45:49.659Z,11.67
2022-09-04T05:48:23.741Z,12.00
2022-09-04T05:51:09.705Z,10.47
2022-09-04T05:54:05.707Z,14.10
2022-09-04T05:56:52.249Z,13.20
2022-09-04T05:59:47.644Z,14.17
2022-09-04T06:02:48.803Z,13.37
2022-09-04T06:05:33.400Z,13.60
2022-09-04T06:08:15.985Z,13.67
2022-09-04T06:10:59.057Z,14.80
2022-09-04T06:13:46.807Z,16.13
2022-09-04T06:16:32.722Z,14.97
2022-09-04T06:19:35.774Z,14.93
2022-09-04T06:22:33.361Z,16.13
2022-09-04T06:25:24.662Z,13.53
2022-09-04T06:28:15.741Z,13.07
2022-09-04T06:30:51.795Z,12.40
2022-09-04T06:33:55.238Z,13.80
2022-09-04T06:36:42.212Z,12.27
2022-09-04T06:39:31.834Z,11.30
2022-09-04T06:42:16.380Z,11.23
2022-09-04T06:45:00.656Z,11.47
2022-09-04T06:47:44.112Z,8.63
2022-09-04T06:50:25.662Z,9.03
2022-09-04T06:53:09.757Z,8.10
2022-09-04T06:55:45.847Z,9.17
2022-09-04T06:58:30.822Z,7.73
2022-09-04T07:01:08.416Z,7.40
2022-09-04T07:03:48.787Z,7.80
2022-09-04T07:06:23.742Z,7.73
2022-09-04T07:09:11.377Z,6.80
2022-09-04T07:11:58.416Z,7.43
2022-09-04T07:14:50.763Z,6.53
2022-09-04T07:17:26.851Z,7.60
2022-09-04T07:20:16.688Z,6.83
2022-09-04T07:23:13.787Z,6.93
2022-09-04T07:25:49.672Z,5.80
2022-09-04T07:28:48.318Z,7.27
2022-09-04T07:31:23.689Z,5.07
2022-09-04T07:34:07.414Z,6.23
2022-09-04T07:36:41.793Z,7.60
2022-09-04T07:39:20.728Z,5.13
2022-09-04T07:41:58.956Z,8.30
2022-09-04T07:44:42.764Z,5.97
2022-09-04T07:47:19.461Z,5.03
2022-09-04T07:49:56.839Z,5.23
2022-09-04T07:52:39.394Z,4.83
2022-09-04T07:55:24.917Z,8.53
2022-09-04T07:58:20.685Z,7.20
2022-09-04T08:01:03.814Z,7.13
2022-09-04T08:03:54.374Z,5.23
2022-09-04T08:06:29.701Z,6.17
2022-09-04T08:09:17.407Z,5.20
2022-09-04T08:12:21.878Z,4.53
2022-09-04T08:14:57.040Z,6.47
2022-09-04T08:17:43.156Z,5.00
2022-09-04T08:20:25.709Z,7.57
2022-09-04T08:23:12.208Z,5.60
2022-09-04T08:25:56.724Z,6.43
2022-09-04T08:28:46.794Z,10.63
2022-09-04T08:31:26.910Z,5.47
2022-09-04T08:34:34.466Z,5.10
2022-09-04T08:37:17.386Z,6.20
2022-09-04T08:39:54.274Z,5.87
2022-09-04T08:43:06.812Z,6.90
2022-09-04T08:46:13.396Z,5.90
2022-09-04T08:49:13.462Z,5.27
2022-09-04T08:52:04.586Z,4.83
2022-09-04T08:54:51.031Z,5.80
2022-09-04T08:57:44.991Z,4.10
2022-09-04T09:00:15.237Z,3.90
2022-09-04T09:03:20.195Z,3.90
2022-09-04T09:06:34.251Z,4.83
2022-09-04T09:09:42.877Z,5.60
2022-09-04T09:12:52.081Z,3.80
2022-09-04T09:16:04.738Z,6.20
2022-09-04T09:18:40.375Z,4.33
2022-09-04T09:21:13.709Z,7.80
2022-09-04T09:24:09.964Z,5.15
2022-09-04T09:26:44.915Z,6.18
2022-09-04T09:29:41.852Z,6.85
2022-09-04T09:32:57.821Z,4.65
2022-09-04T09:35:56.754Z,4.78
2022-09-04T09:38:52.927Z,5.78
2022-09-04T09:41:46.945Z,5.20
2022-09-04T09:44:43.848Z,8.43
2022-09-04T09:47:36.730Z,7.72
2022-09-04T09:50:15.868Z,6.82
2022-09-04T09:53:29.672Z,6.78
2022-09-04T09:56:32.043Z,5.45
2022-09-04T09:59:29.794Z,12.50
2022-09-04T10:02:17.961Z,5.30
2022-09-04T10:05:14.740Z,5.85
2022-09-04T10:08:13.961Z,5.60
2022-09-04T10:11:05.881Z,6.95
2022-09-04T10:14:10.922Z,7.85
2022-09-04T10:17:19.189Z,5.28
2022-09-04T10:20:22.901Z,6.95
2022-09-04T10:23:08.352Z,5.63
2022-09-04T10:26:04.877Z,8.15
2022-09-04T10:29:10.062Z,7.22
2022-09-04T10:31:55.613Z,6.20
2022-09-04T10:34:41.556Z,5.90
2022-09-04T10:37:27.733Z,5.47
2022-09-04T10:40:29.524Z,6.18
2022-09-04T10:43:24.145Z,7.00
2022-09-04T10:46:02.108Z,6.85
2022-09-04T10:49:12.428Z,6.97
2022-09-04T10:52:13.899Z,6.47
2022-09-04T10:55:27.908Z,6.78
2022-09-04T10:58:10.812Z,6.03
2022-09-04T11:00:52.343Z,5.28
2022-09-04T11:03:49.879Z,5.75
2022-09-04T11:06:49.209Z,7.47
2022-09-04T11:09:29.791Z,8.35
2022-09-04T11:12:25.053Z,6.35
2022-09-04T11:15:31.476Z,6.22
2022-09-04T11:18:34.732Z,5.85
2022-09-04T11:21:37.018Z,5.32
2022-09-04T11:25:03.232Z,8.07
2022-09-04T11:28:07.959Z,5.53
2022-09-04T11:30:53.868Z,5.53
2022-09-04T11:34:01.499Z,7.22
2022-09-04T11:37:06.873Z,7.65
2022-09-04T11:40:03.684Z,5.05
2022-09-04T11:42:41.993Z,7.93
2022-09-04T11:45:51.476Z,5.68
2022-09-04T11:48:48.305Z,5.30
2022-09-04T11:51:41.072Z,5.07
2022-09-04T11:54:47.073Z,7.18
2022-09-04T11:57:30.626Z,4.47
2022-09-04T12:00:07.658Z,7.70
2022-09-04T12:03:13.999Z,6.70
2022-09-04T12:06:00.145Z,5.72
2022-09-04T12:08:49.987Z,4.80
2022-09-04T12:11:54.514Z,5.43
2022-09-04T12:14:44.863Z,6.10
2022-09-04T12:17:38.973Z,4.47
2022-09-04T12:20:48.555Z,5.88
2022-09-04T12:23:45.956Z,4.40
2022-09-04T12:26:51.477Z,4.53
2022-09-04T12:29:50.451Z,4.13
2022-09-04T12:32:56.985Z,6.30
2022-09-04T12:36:00.870Z,5.03
2022-09-04T12:38:49.003Z,4.05
2022-09-04T12:41:20.848Z,4.75
2022-09-04T12:44:03.473Z,6.13
2022-09-04T12:46:50.291Z,5.57
2022-09-04T12:49:40.975Z,3.92
2022-09-04T12:52:20.560Z,4.35
2022-09-04T12:55:01.903Z,5.82
2022-09-04T12:57:41.345Z,4.15
2022-09-04T13:00:13.178Z,4.18
2022-09-04T13:02:57.250Z,4.55
2022-09-04T13:05:46.789Z,5.03
2022-09-04T13:08:35.629Z,4.40
2022-09-04T13:11:19.522Z,5.32
2022-09-04T13:14:01.951Z,4.15
2022-09-04T13:16:37.632Z,7.95
2022-09-04T13:19:16.983Z,4.45
2022-09-04T13:22:10.081Z,5.18
2022-09-04T13:24:52.893Z,4.15
2022-09-04T13:27:34.247Z,5.07
2022-09-04T13:30:09.896Z,3.55
2022-09-04T13:33:02.038Z,4.47
2022-09-04T13:36:03.903Z,3.97
2022-09-04T13:39:10.692Z,3.88
2022-09-04T13:42:14.514Z,4.30
2022-09-04T13:45:11.832Z,4.53
2022-09-04T13:47:51.244Z,5.70
2022-09-04T13:50:25.944Z,3.92
2022-09-04T13:53:01.157Z,5.60
2022-09-04T13:55:33.047Z,4.45
2022-09-04T13:58:11.014Z,4.00
2022-09-04T14:00:45.895Z,4.75
2022-09-04T14:03:27.393Z,3.55
2022-09-04T14:05:57.009Z,4.72
2022-09-04T14:08:31.477Z,4.72
2022-09-04T14:11:41.123Z,4.70
2022-09-04T14:14:43.926Z,4.20
2022-09-04T14:17:13.465Z,6.03
2022-09-04T14:19:53.948Z,5.13
2022-09-04T14:22:42.120Z,5.10
2022-09-04T14:25:20.963Z,5.70
2022-09-04T14:27:59.022Z,4.38
2022-09-04T14:30:29.965Z,5.85
2022-09-04T14:33:18.889Z,6.25
2022-09-04T14:36:03.945Z,5.30
2022-09-04T14:38:51.765Z,3.35
2022-09-04T14:41:36.299Z,3.22
2022-09-04T14:44:16.123Z,4.70
2022-09-04T14:46:55.462Z,4.60
2022-09-04T14:49:29.379Z,5.47
2022-09-04T14:52:01.110Z,4.20
2022-09-04T14:54:33.766Z,4.50
2022-09-04T14:57:13.105Z,8.27
2022-09-04T14:59:47.275Z,8.07
2022-09-04T15:02:33.325Z,6.18
2022-09-04T15:05:07.579Z,5.55
2022-09-04T15:08:07.911Z,3.58
2022-09-04T15:10:49.941Z,5.07
2022-09-04T15:13:54.265Z,6.45
2022-09-04T15:16:44.297Z,5.72
2022-09-04T15:19:35.919Z,6.68
2022-09-04T15:22:10.204Z,7.65
2022-09-04T15:24:52.337Z,4.53
2022-09-04T15:27:28.440Z,3.80
2022-09-04T15:30:09.035Z,6.93
2022-09-04T15:32:41.936Z,6.60
2022-09-04T15:35:22.581Z,3.83
2022-09-04T15:37:54.187Z,3.75
2022-09-04T15:40:29.696Z,4.13
2022-09-04T15:43:12.738Z,4.82
2022-09-04T15:45:47.538Z,7.20
2022-09-04T15:48:29.000Z,6.68
2022-09-04T15:51:25.375Z,7.43
2022-09-04T15:54:16.200Z,7.63
2022-09-04T15:56:57.009Z,4.97
2022-09-04T15:59:33.118Z,7.03
2022-09-04T16:02:11.685Z,8.00
2022-09-04T16:04:49.378Z,5.25
2022-09-04T16:07:35.834Z,7.85
2022-09-04T16:10:14.452Z,8.43
2022-09-04T16:12:57.113Z,4.47
2022-09-04T16:15:30.647Z,5.93
2022-09-04T16:18:03.569Z,4.82
2022-09-04T16:20:38.272Z,5.45
2022-09-04T16:23:10.362Z,3.95
2022-09-04T16:25:43.363Z,7.30
2022-09-04T16:28:16.228Z,3.15
2022-09-04T16:30:51.370Z,9.10
2022-09-04T16:33:28.435Z,8.43
2022-09-04T16:36:04.024Z,7.68
2022-09-04T16:38:40.652Z,7.28
2022-09-04T16:41:18.793Z,7.22
2022-09-04T16:44:13.186Z,6.15
2022-09-04T16:46:48.255Z,5.00
2022-09-04T16:49:26.339Z,3.83
2022-09-04T16:52:02.286Z,2.92
2022-09-04T16:54:35.581Z,4.68
2022-09-04T16:57:36.809Z,8.30
2022-09-04T17:00:13.043Z,5.15
2022-09-04T17:02:48.779Z,5.22
2022-09-04T17:05:34.979Z,5.68
2022-09-04T17:08:11.311Z,3.75
2022-09-04T17:10:48.190Z,6.32
2022-09-04T17:13:27.579Z,4.70
2022-09-04T17:16:00.854Z,5.40
2022-09-04T17:18:31.132Z,7.07
2022-09-04T17:22:55.568Z,3.85
2022-09-04T17:29:03.496Z,3.70
2022-09-04T17:29:16.881Z,6.85
2022-09-04T17:30:28.883Z,2.53
2022-09-04T17:39:15.537Z,4.97
2022-09-04T17:40:52.537Z,2.80
2022-09-04T17:40:57.004Z,8.45
2022-09-04T17:42:08.417Z,4.78
2022-09-04T17:44:47.085Z,4.18
2022-09-04T17:47:27.377Z,3.33
2022-09-04T17:49:58.106Z,4.47
2022-09-04T17:52:28.404Z,7.53
2022-09-04T17:55:06.766Z,5.35
2022-09-04T17:57:53.178Z,4.03
2022-09-04T18:00:24.976Z,5.78
2022-09-04T18:03:02.293Z,6.88
2022-09-04T18:05:36.481Z,16.85
2022-09-04T18:08:33.250Z,14.55
2022-09-04T18:11:08.806Z,5.88
2022-09-04T18:13:45.472Z,7.45
2022-09-04T18:16:27.473Z,5.20
2022-09-04T18:18:59.153Z,5.00
2022-09-04T18:21:31.294Z,4.97
2022-09-04T18:24:05.221Z,6.15
2022-09-04T18:26:41.462Z,5.05
2022-09-04T18:31:02.471Z,3.22
2022-09-04T18:37:17.024Z,3.05
2022-09-04T18:37:22.288Z,5.67
2022-09-04T18:38:20.511Z,14.10
2022-09-04T18:44:58.523Z,14.43
2022-09-04T18:50:21.981Z,6.27
2022-09-04T18:50:33.210Z,7.15
2022-09-04T18:50:37.886Z,6.10
2022-09-04T18:52:30.147Z,10.10
2022-09-04T18:55:08.327Z,7.93
2022-09-04T18:57:49.076Z,7.23
2022-09-04T19:00:28.740Z,8.50
2022-09-04T19:03:11.711Z,8.13
2022-09-04T19:05:44.437Z,5.87
2022-09-04T19:08:21.883Z,5.10
2022-09-04T19:10:55.272Z,3.53
2022-09-04T19:13:29.249Z,11.85
2022-09-04T19:16:04.968Z,33.80
2022-09-04T19:18:48.371Z,13.03
2022-09-04T19:21:31.925Z,5.57
2022-09-04T19:24:12.185Z,5.50
2022-09-04T19:26:46.269Z,6.03
2022-09-04T19:29:20.284Z,4.70
2022-09-04T19:31:55.668Z,7.27
2022-09-04T19:34:37.280Z,6.80
2022-09-04T19:37:46.827Z,13.23
2022-09-04T19:45:57.833Z,8.07
2022-09-04T19:45:59.533Z,6.83
2022-09-04T19:46:24.950Z,3.70
2022-09-04T19:49:54.290Z,7.43
2022-09-04T19:53:34.344Z,7.50
2022-09-04T19:54:59.955Z,4.00
2022-09-04T19:57:43.643Z,3.90
2022-09-04T20:00:31.343Z,7.17
2022-09-04T20:03:28.442Z,3.60
2022-09-04T20:06:20.133Z,4.53
2022-09-04T20:08:54.312Z,5.20
2022-09-04T20:11:35.954Z,4.60
2022-09-04T20:14:14.781Z,3.53
2022-09-04T20:16:58.398Z,25.47
2022-09-04T20:19:39.506Z,9.10
2022-09-04T20:22:18.290Z,3.20
2022-09-04T20:24:58.465Z,2.30
2022-09-04T20:27:36.293Z,4.47
2022-09-04T20:30:13.175Z,4.33
2022-09-04T20:32:56.587Z,3.67
2022-09-04T20:35:36.211Z,7.43
2022-09-04T20:38:23.369Z,5.70
2022-09-04T20:41:00.174Z,3.23
2022-09-04T20:43:38.523Z,3.33
2022-09-04T20:52:40.475Z,4.23
2022-09-04T20:52:43.805Z,5.03
2022-09-04T20:53:07.000Z,3.63
2022-09-04T20:55:36.692Z,3.63
2022-09-04T21:02:39.198Z,4.07
2022-09-04T21:03:19.488Z,3.33
2022-09-04T21:04:42.322Z,2.30
2022-09-04T21:07:20.467Z,1.83
2022-09-04T21:10:01.436Z,3.57
2022-09-04T21:12:38.188Z,2.53
2022-09-04T21:15:15.184Z,4.73
2022-09-04T21:18:02.337Z,3.23
2022-09-04T21:20:59.552Z,3.20
2022-09-04T21:24:10.241Z,2.43
2022-09-04T21:27:09.446Z,4.00
2022-09-04T21:29:53.375Z,4.80
2022-09-04T21:32:34.589Z,3.67
2022-09-04T21:35:13.294Z,1.80
2022-09-04T21:37:49.329Z,4.03
2022-09-04T21:40:49.768Z,1.30
2022-09-04T21:43:44.301Z,3.43
2022-09-04T21:46:37.402Z,1.40
2022-09-04T21:49:26.909Z,1.53
2022-09-04T21:52:09.321Z,2.50
2022-09-04T21:58:10.094Z,3.00
2022-09-04T22:02:32.246Z,1.57
2022-09-04T22:02:39.554Z,1.50
2022-09-04T22:04:19.500Z,1.87
2022-09-04T22:09:27.242Z,1.30
2022-09-04T22:13:29.049Z,1.30
2022-09-04T22:13:41.775Z,1.40
2022-09-04T22:16:06.077Z,25.67
2022-09-04T22:19:16.849Z,4.13
2022-09-04T22:22:07.445Z,2.37
2022-09-04T22:25:07.414Z,1.80
2022-09-04T22:28:20.661Z,1.47
2022-09-04T22:31:19.377Z,3.63
2022-09-04T22:34:15.431Z,3.10
2022-09-04T22:37:27.423Z,2.73
2022-09-04T22:40:13.305Z,1.40
2022-09-04T22:42:52.416Z,1.87
2022-09-04T22:45:59.776Z,2.40
2022-09-04T22:49:13.058Z,2.97
2022-09-04T22:52:12.676Z,5.17
2022-09-04T22:54:52.674Z,1.43
2022-09-04T22:57:27.767Z,1.33
2022-09-04T23:00:08.569Z,1.30
2022-09-04T23:03:10.540Z,1.57
2022-09-04T23:08:12.250Z,1.50
2022-09-04T23:13:46.413Z,1.90
2022-09-04T23:13:54.537Z,1.10
2022-09-04T23:16:28.154Z,1.27
2022-09-04T23:24:43.788Z,6.47
2022-09-04T23:26:33.281Z,1.63
2022-09-04T23:26:42.533Z,2.50
2022-09-04T23:29:15.970Z,1.40
2022-09-04T23:32:13.291Z,2.40
2022-09-04T23:35:13.993Z,0.90
2022-09-04T23:38:12.086Z,2.37
2022-09-04T23:40:44.870Z,1.13
2022-09-04T23:44:16.715Z,1.17
2022-09-04T23:47:48.793Z,0.90
2022-09-04T23:50:23.290Z,1.77
2022-09-04T23:53:05.428Z,2.50
2022-09-04T23:55:49.318Z,3.50
2022-09-04T23:58:51.888Z,6.33
